Terminal Aerodrome Forecast
Issued by NWS Los Angeles, CA

Home | Current Version | Previous Version | Text Only | Print | Product List | Glossary On
Versions: 1 2 3 4 5 6 7 8 9 10 11 12
041
FTUS46 KLOX 062347
TAFSMX
TAF
KSMX 062347Z 0700/0724 01010KT P6SM SKC
     FM071200 04006KT P6SM SKC
     FM072100 32008KT P6SM SKC=

USA.gov is the U.S. government's official web portal to all federal, state and local government web resources and services.